sensor_id;sensor_type;location;lat;lon;timestamp;P1;durP1;ratioP1;P2;durP2;ratioP2
68821;SDS011;55834;50.870;4.606;2023-07-28T00:02:15;1.60;;;1.20;;
68821;SDS011;55834;50.870;4.606;2023-07-28T00:04:40;1.80;;;1.50;;
68821;SDS011;55834;50.870;4.606;2023-07-28T00:07:06;1.90;;;1.10;;
68821;SDS011;55834;50.870;4.606;2023-07-28T00:09:31;1.93;;;1.83;;
68821;SDS011;55834;50.870;4.606;2023-07-28T00:11:57;3.30;;;1.40;;
68821;SDS011;55834;50.870;4.606;2023-07-28T00:14:23;1.50;;;1.40;;
68821;SDS011;55834;50.870;4.606;2023-07-28T00:16:50;1.85;;;1.38;;
68821;SDS011;55834;50.870;4.606;2023-07-28T00:19:16;2.58;;;1.33;;
68821;SDS011;55834;50.870;4.606;2023-07-28T00:21:41;1.80;;;1.52;;
68821;SDS011;55834;50.870;4.606;2023-07-28T00:24:06;1.57;;;1.47;;
68821;SDS011;55834;50.870;4.606;2023-07-28T00:26:32;1.85;;;1.48;;
68821;SDS011;55834;50.870;4.606;2023-07-28T00:28:57;3.77;;;1.87;;
68821;SDS011;55834;50.870;4.606;2023-07-28T00:31:24;2.30;;;1.38;;
68821;SDS011;55834;50.870;4.606;2023-07-28T00:33:49;2.08;;;1.40;;
68821;SDS011;55834;50.870;4.606;2023-07-28T00:36:15;2.60;;;1.77;;
68821;SDS011;55834;50.870;4.606;2023-07-28T00:38:40;2.87;;;1.67;;
68821;SDS011;55834;50.870;4.606;2023-07-28T00:41:05;1.60;;;1.50;;
68821;SDS011;55834;50.870;4.606;2023-07-28T00:43:31;2.77;;;1.50;;
68821;SDS011;55834;50.870;4.606;2023-07-28T00:45:56;1.43;;;1.33;;
68821;SDS011;55834;50.870;4.606;2023-07-28T00:48:22;2.58;;;1.40;;
68821;SDS011;55834;50.870;4.606;2023-07-28T00:50:48;3.20;;;1.67;;
68821;SDS011;55834;50.870;4.606;2023-07-28T00:53:15;2.30;;;1.25;;
68821;SDS011;55834;50.870;4.606;2023-07-28T00:55:41;2.92;;;1.40;;
68821;SDS011;55834;50.870;4.606;2023-07-28T00:58:06;2.75;;;1.80;;
68821;SDS011;55834;50.870;4.606;2023-07-28T01:00:33;1.90;;;1.60;;
68821;SDS011;55834;50.870;4.606;2023-07-28T01:02:58;2.10;;;1.90;;
68821;SDS011;55834;50.870;4.606;2023-07-28T01:05:26;1.98;;;1.83;;
68821;SDS011;55834;50.870;4.606;2023-07-28T01:08:02;3.58;;;2.35;;
68821;SDS011;55834;50.870;4.606;2023-07-28T01:10:36;4.00;;;1.95;;
68821;SDS011;55834;50.870;4.606;2023-07-28T01:13:03;3.03;;;2.00;;
68821;SDS011;55834;50.870;4.606;2023-07-28T01:15:29;2.20;;;1.93;;
68821;SDS011;55834;50.870;4.606;2023-07-28T01:17:54;3.10;;;1.97;;
68821;SDS011;55834;50.870;4.606;2023-07-28T01:20:20;4.20;;;2.03;;
68821;SDS011;55834;50.870;4.606;2023-07-28T01:23:07;3.28;;;2.33;;
68821;SDS011;55834;50.870;4.606;2023-07-28T01:28:19;4.32;;;2.05;;
68821;SDS011;55834;50.870;4.606;2023-07-28T01:30:46;3.40;;;2.55;;
68821;SDS011;55834;50.870;4.606;2023-07-28T01:33:11;2.88;;;2.13;;
68821;SDS011;55834;50.870;4.606;2023-07-28T01:35:37;2.75;;;2.55;;
68821;SDS011;55834;50.870;4.606;2023-07-28T01:38:05;2.40;;;2.13;;
68821;SDS011;55834;50.870;4.606;2023-07-28T01:40:31;3.78;;;2.78;;
68821;SDS011;55834;50.870;4.606;2023-07-28T01:42:56;2.50;;;2.23;;
68821;SDS011;55834;50.870;4.606;2023-07-28T01:45:22;4.03;;;2.42;;
68821;SDS011;55834;50.870;4.606;2023-07-28T01:47:47;1.95;;;1.83;;
68821;SDS011;55834;50.870;4.606;2023-07-28T01:50:13;4.30;;;2.83;;
68821;SDS011;55834;50.870;4.606;2023-07-28T01:52:38;4.80;;;2.43;;
68821;SDS011;55834;50.870;4.606;2023-07-28T01:55:04;3.00;;;2.28;;
68821;SDS011;55834;50.870;4.606;2023-07-28T01:57:32;3.35;;;2.83;;
68821;SDS011;55834;50.870;4.606;2023-07-28T01:59:58;2.97;;;2.67;;
68821;SDS011;55834;50.870;4.606;2023-07-28T02:02:24;2.40;;;2.20;;
68821;SDS011;55834;50.870;4.606;2023-07-28T02:04:49;2.65;;;2.33;;
68821;SDS011;55834;50.870;4.606;2023-07-28T02:07:15;2.37;;;2.17;;
68821;SDS011;55834;50.870;4.606;2023-07-28T02:09:40;2.50;;;2.30;;
68821;SDS011;55834;50.870;4.606;2023-07-28T02:12:06;3.07;;;2.20;;
68821;SDS011;55834;50.870;4.606;2023-07-28T02:14:31;3.10;;;1.90;;
68821;SDS011;55834;50.870;4.606;2023-07-28T02:16:57;2.83;;;2.50;;
68821;SDS011;55834;50.870;4.606;2023-07-28T02:19:22;2.63;;;2.43;;
68821;SDS011;55834;50.870;4.606;2023-07-28T02:21:47;2.87;;;2.57;;
68821;SDS011;55834;50.870;4.606;2023-07-28T02:24:13;5.40;;;2.53;;
68821;SDS011;55834;50.870;4.606;2023-07-28T02:26:38;3.93;;;2.43;;
68821;SDS011;55834;50.870;4.606;2023-07-28T02:29:03;3.80;;;3.40;;
68821;SDS011;55834;50.870;4.606;2023-07-28T02:31:29;3.70;;;2.30;;
68821;SDS011;55834;50.870;4.606;2023-07-28T02:33:54;3.17;;;2.83;;
68821;SDS011;55834;50.870;4.606;2023-07-28T02:36:20;7.70;;;3.15;;
68821;SDS011;55834;50.870;4.606;2023-07-28T02:38:45;3.17;;;2.67;;
68821;SDS011;55834;50.870;4.606;2023-07-28T02:41:11;4.30;;;3.20;;
68821;SDS011;55834;50.870;4.606;2023-07-28T02:43:36;4.93;;;3.22;;
68821;SDS011;55834;50.870;4.606;2023-07-28T02:46:04;4.17;;;2.80;;
68821;SDS011;55834;50.870;4.606;2023-07-28T02:48:30;3.60;;;2.85;;
68821;SDS011;55834;50.870;4.606;2023-07-28T02:50:55;3.80;;;3.10;;
68821;SDS011;55834;50.870;4.606;2023-07-28T02:53:20;4.07;;;3.27;;
68821;SDS011;55834;50.870;4.606;2023-07-28T02:55:46;2.65;;;2.45;;
68821;SDS011;55834;50.870;4.606;2023-07-28T02:58:13;3.33;;;2.88;;
68821;SDS011;55834;50.870;4.606;2023-07-28T03:00:39;6.03;;;3.30;;
68821;SDS011;55834;50.870;4.606;2023-07-28T03:03:05;4.50;;;2.75;;
68821;SDS011;55834;50.870;4.606;2023-07-28T03:05:32;3.80;;;2.50;;
68821;SDS011;55834;50.870;4.606;2023-07-28T03:07:57;6.57;;;2.55;;
68821;SDS011;55834;50.870;4.606;2023-07-28T03:10:23;5.05;;;2.95;;
68821;SDS011;55834;50.870;4.606;2023-07-28T03:12:49;2.25;;;1.85;;
68821;SDS011;55834;50.870;4.606;2023-07-28T03:15:14;3.40;;;2.70;;
68821;SDS011;55834;50.870;4.606;2023-07-28T03:17:39;3.70;;;2.93;;
68821;SDS011;55834;50.870;4.606;2023-07-28T03:20:05;3.07;;;2.70;;
68821;SDS011;55834;50.870;4.606;2023-07-28T03:22:31;4.10;;;2.88;;
68821;SDS011;55834;50.870;4.606;2023-07-28T03:24:56;2.85;;;2.00;;
68821;SDS011;55834;50.870;4.606;2023-07-28T03:27:22;3.40;;;1.90;;
68821;SDS011;55834;50.870;4.606;2023-07-28T03:29:47;2.80;;;1.80;;
68821;SDS011;55834;50.870;4.606;2023-07-28T03:32:12;2.03;;;1.73;;
68821;SDS011;55834;50.870;4.606;2023-07-28T03:34:38;2.00;;;1.60;;
68821;SDS011;55834;50.870;4.606;2023-07-28T03:37:03;3.97;;;2.45;;
68821;SDS011;55834;50.870;4.606;2023-07-28T03:39:29;2.40;;;2.05;;
68821;SDS011;55834;50.870;4.606;2023-07-28T03:41:56;2.38;;;2.15;;
68821;SDS011;55834;50.870;4.606;2023-07-28T03:44:21;2.08;;;1.88;;
68821;SDS011;55834;50.870;4.606;2023-07-28T03:46:47;2.17;;;1.98;;
68821;SDS011;55834;50.870;4.606;2023-07-28T03:49:12;3.17;;;2.10;;
68821;SDS011;55834;50.870;4.606;2023-07-28T03:51:38;2.00;;;1.85;;
68821;SDS011;55834;50.870;4.606;2023-07-28T03:54:03;3.03;;;2.07;;
68821;SDS011;55834;50.870;4.606;2023-07-28T03:56:28;4.90;;;2.10;;
68821;SDS011;55834;50.870;4.606;2023-07-28T03:58:54;3.22;;;2.08;;
68821;SDS011;55834;50.870;4.606;2023-07-28T04:01:19;2.17;;;1.97;;
68821;SDS011;55834;50.870;4.606;2023-07-28T04:03:46;2.42;;;2.10;;
68821;SDS011;55834;50.870;4.606;2023-07-28T04:06:12;2.50;;;1.70;;
68821;SDS011;55834;50.870;4.606;2023-07-28T04:08:38;1.73;;;1.63;;
68821;SDS011;55834;50.870;4.606;2023-07-28T04:11:04;4.63;;;2.33;;
68821;SDS011;55834;50.870;4.606;2023-07-28T04:13:29;3.55;;;1.70;;
68821;SDS011;55834;50.870;4.606;2023-07-28T04:15:54;2.20;;;1.63;;
68821;SDS011;55834;50.870;4.606;2023-07-28T04:18:20;2.42;;;2.22;;
68821;SDS011;55834;50.870;4.606;2023-07-28T04:20:45;2.90;;;1.50;;
68821;SDS011;55834;50.870;4.606;2023-07-28T04:23:11;1.98;;;1.40;;
68821;SDS011;55834;50.870;4.606;2023-07-28T04:25:37;1.40;;;1.20;;
68821;SDS011;55834;50.870;4.606;2023-07-28T04:28:02;1.75;;;1.55;;
68821;SDS011;55834;50.870;4.606;2023-07-28T04:30:28;2.17;;;1.42;;
68821;SDS011;55834;50.870;4.606;2023-07-28T04:32:53;1.80;;;1.13;;
68821;SDS011;55834;50.870;4.606;2023-07-28T04:35:19;1.70;;;1.60;;
68821;SDS011;55834;50.870;4.606;2023-07-28T04:37:44;2.92;;;1.30;;
68821;SDS011;55834;50.870;4.606;2023-07-28T04:40:09;2.75;;;1.63;;
68821;SDS011;55834;50.870;4.606;2023-07-28T04:42:35;1.95;;;1.40;;
68821;SDS011;55834;50.870;4.606;2023-07-28T04:45:01;2.30;;;1.42;;
68821;SDS011;55834;50.870;4.606;2023-07-28T04:47:27;3.80;;;2.00;;
68821;SDS011;55834;50.870;4.606;2023-07-28T04:49:52;3.03;;;1.42;;
68821;SDS011;55834;50.870;4.606;2023-07-28T04:52:18;2.78;;;1.67;;
68821;SDS011;55834;50.870;4.606;2023-07-28T04:54:43;1.35;;;1.25;;
68821;SDS011;55834;50.870;4.606;2023-07-28T04:57:09;3.85;;;1.40;;
68821;SDS011;55834;50.870;4.606;2023-07-28T04:59:34;2.23;;;1.40;;
68821;SDS011;55834;50.870;4.606;2023-07-28T05:01:59;2.73;;;1.20;;
68821;SDS011;55834;50.870;4.606;2023-07-28T05:04:25;2.67;;;1.20;;
68821;SDS011;55834;50.870;4.606;2023-07-28T05:06:50;2.03;;;1.30;;
68821;SDS011;55834;50.870;4.606;2023-07-28T05:09:16;3.10;;;1.53;;
68821;SDS011;55834;50.870;4.606;2023-07-28T05:11:41;2.35;;;1.35;;
68821;SDS011;55834;50.870;4.606;2023-07-28T05:14:06;1.60;;;1.27;;
68821;SDS011;55834;50.870;4.606;2023-07-28T05:16:33;2.13;;;1.25;;
68821;SDS011;55834;50.870;4.606;2023-07-28T05:19:00;2.85;;;1.52;;
68821;SDS011;55834;50.870;4.606;2023-07-28T05:21:25;1.20;;;1.10;;
68821;SDS011;55834;50.870;4.606;2023-07-28T05:23:50;1.23;;;1.10;;
68821;SDS011;55834;50.870;4.606;2023-07-28T05:26:16;1.60;;;0.90;;
68821;SDS011;55834;50.870;4.606;2023-07-28T05:28:41;2.65;;;1.00;;
68821;SDS011;55834;50.870;4.606;2023-07-28T05:31:07;1.30;;;1.05;;
68821;SDS011;55834;50.870;4.606;2023-07-28T05:33:33;1.60;;;1.33;;
68821;SDS011;55834;50.870;4.606;2023-07-28T05:36:02;3.60;;;1.80;;
68821;SDS011;55834;50.870;4.606;2023-07-28T05:38:28;1.17;;;1.13;;
68821;SDS011;55834;50.870;4.606;2023-07-28T05:40:57;1.08;;;0.98;;
68821;SDS011;55834;50.870;4.606;2023-07-28T05:43:25;1.63;;;1.20;;
68821;SDS011;55834;50.870;4.606;2023-07-28T05:45:51;1.10;;;1.10;;
68821;SDS011;55834;50.870;4.606;2023-07-28T05:48:16;1.10;;;1.00;;
68821;SDS011;55834;50.870;4.606;2023-07-28T05:50:41;0.90;;;0.90;;
68821;SDS011;55834;50.870;4.606;2023-07-28T05:53:07;0.90;;;0.87;;
68821;SDS011;55834;50.870;4.606;2023-07-28T05:55:32;6.13;;;1.17;;
68821;SDS011;55834;50.870;4.606;2023-07-28T05:57:58;1.08;;;0.82;;
68821;SDS011;55834;50.870;4.606;2023-07-28T06:00:23;0.60;;;0.60;;
68821;SDS011;55834;50.870;4.606;2023-07-28T06:02:49;1.43;;;0.80;;
68821;SDS011;55834;50.870;4.606;2023-07-28T06:05:14;1.70;;;0.90;;
68821;SDS011;55834;50.870;4.606;2023-07-28T06:07:39;0.70;;;0.70;;
68821;SDS011;55834;50.870;4.606;2023-07-28T06:10:05;2.53;;;1.30;;
68821;SDS011;55834;50.870;4.606;2023-07-28T06:12:31;1.38;;;1.00;;
68821;SDS011;55834;50.870;4.606;2023-07-28T06:14:56;2.90;;;1.00;;
68821;SDS011;55834;50.870;4.606;2023-07-28T06:17:21;3.70;;;0.90;;
68821;SDS011;55834;50.870;4.606;2023-07-28T06:19:47;2.20;;;0.73;;
68821;SDS011;55834;50.870;4.606;2023-07-28T06:22:12;1.67;;;1.17;;
68821;SDS011;55834;50.870;4.606;2023-07-28T06:24:38;1.37;;;1.27;;
68821;SDS011;55834;50.870;4.606;2023-07-28T06:27:03;1.33;;;1.23;;
68821;SDS011;55834;50.870;4.606;2023-07-28T06:29:33;0.80;;;0.80;;
68821;SDS011;55834;50.870;4.606;2023-07-28T06:31:58;1.00;;;1.00;;
68821;SDS011;55834;50.870;4.606;2023-07-28T06:34:24;1.30;;;1.10;;
68821;SDS011;55834;50.870;4.606;2023-07-28T06:36:49;3.45;;;1.45;;
68821;SDS011;55834;50.870;4.606;2023-07-28T06:39:14;1.25;;;1.05;;
68821;SDS011;55834;50.870;4.606;2023-07-28T06:41:40;1.57;;;1.00;;
68821;SDS011;55834;50.870;4.606;2023-07-28T06:44:05;0.95;;;0.95;;
68821;SDS011;55834;50.870;4.606;2023-07-28T06:46:33;2.40;;;1.48;;
68821;SDS011;55834;50.870;4.606;2023-07-28T06:51:25;1.60;;;1.40;;
68821;SDS011;55834;50.870;4.606;2023-07-28T06:53:50;1.60;;;1.13;;
68821;SDS011;55834;50.870;4.606;2023-07-28T06:56:16;1.40;;;1.30;;
68821;SDS011;55834;50.870;4.606;2023-07-28T06:58:42;2.65;;;1.48;;
68821;SDS011;55834;50.870;4.606;2023-07-28T07:01:07;2.10;;;2.00;;
68821;SDS011;55834;50.870;4.606;2023-07-28T07:03:35;2.28;;;1.60;;
68821;SDS011;55834;50.870;4.606;2023-07-28T07:06:01;1.70;;;1.60;;
68821;SDS011;55834;50.870;4.606;2023-07-28T07:08:27;1.67;;;1.42;;
68821;SDS011;55834;50.870;4.606;2023-07-28T07:10:53;1.90;;;1.80;;
68821;SDS011;55834;50.870;4.606;2023-07-28T07:13:18;2.35;;;1.50;;
68821;SDS011;55834;50.870;4.606;2023-07-28T07:15:44;1.65;;;1.55;;
68821;SDS011;55834;50.870;4.606;2023-07-28T07:18:10;1.80;;;1.60;;
68821;SDS011;55834;50.870;4.606;2023-07-28T07:20:36;1.40;;;1.30;;
68821;SDS011;55834;50.870;4.606;2023-07-28T07:23:03;1.20;;;1.10;;
68821;SDS011;55834;50.870;4.606;2023-07-28T07:25:31;0.70;;;0.70;;
68821;SDS011;55834;50.870;4.606;2023-07-28T07:27:57;1.27;;;1.23;;
68821;SDS011;55834;50.870;4.606;2023-07-28T07:30:22;0.90;;;0.90;;
68821;SDS011;55834;50.870;4.606;2023-07-28T07:32:48;1.08;;;0.60;;
68821;SDS011;55834;50.870;4.606;2023-07-28T07:35:13;1.60;;;0.60;;
68821;SDS011;55834;50.870;4.606;2023-07-28T07:37:38;0.10;;;0.10;;
68821;SDS011;55834;50.870;4.606;2023-07-28T07:40:05;0.20;;;0.17;;
68821;SDS011;55834;50.870;4.606;2023-07-28T07:42:47;0.43;;;0.43;;
68821;SDS011;55834;50.870;4.606;2023-07-28T07:45:14;0.38;;;0.30;;
68821;SDS011;55834;50.870;4.606;2023-07-28T07:47:40;0.17;;;0.17;;
68821;SDS011;55834;50.870;4.606;2023-07-28T07:50:07;0.30;;;0.30;;
68821;SDS011;55834;50.870;4.606;2023-07-28T07:52:36;0.50;;;0.50;;
68821;SDS011;55834;50.870;4.606;2023-07-28T07:55:03;0.20;;;0.20;;
68821;SDS011;55834;50.870;4.606;2023-07-28T07:57:29;1.45;;;0.30;;
68821;SDS011;55834;50.870;4.606;2023-07-28T07:59:57;0.82;;;0.40;;
68821;SDS011;55834;50.870;4.606;2023-07-28T08:02:23;0.20;;;0.20;;
68821;SDS011;55834;50.870;4.606;2023-07-28T08:04:48;0.30;;;0.20;;
68821;SDS011;55834;50.870;4.606;2023-07-28T08:07:14;0.55;;;0.43;;
68821;SDS011;55834;50.870;4.606;2023-07-28T08:09:44;1.95;;;0.50;;
68821;SDS011;55834;50.870;4.606;2023-07-28T08:12:09;1.52;;;0.70;;
68821;SDS011;55834;50.870;4.606;2023-07-28T08:14:34;0.70;;;0.70;;
68821;SDS011;55834;50.870;4.606;2023-07-28T08:17:00;0.60;;;0.30;;
68821;SDS011;55834;50.870;4.606;2023-07-28T08:19:25;0.67;;;0.67;;
68821;SDS011;55834;50.870;4.606;2023-07-28T08:21:51;1.53;;;0.93;;
68821;SDS011;55834;50.870;4.606;2023-07-28T08:24:16;1.05;;;0.95;;
68821;SDS011;55834;50.870;4.606;2023-07-28T08:26:42;2.10;;;0.90;;
68821;SDS011;55834;50.870;4.606;2023-07-28T08:29:07;0.60;;;0.52;;
68821;SDS011;55834;50.870;4.606;2023-07-28T08:31:32;2.53;;;1.25;;
68821;SDS011;55834;50.870;4.606;2023-07-28T08:33:58;0.93;;;0.90;;
68821;SDS011;55834;50.870;4.606;2023-07-28T08:36:23;1.13;;;1.00;;
68821;SDS011;55834;50.870;4.606;2023-07-28T08:38:49;1.80;;;0.95;;
68821;SDS011;55834;50.870;4.606;2023-07-28T08:41:14;1.10;;;1.00;;
68821;SDS011;55834;50.870;4.606;2023-07-28T08:43:39;1.30;;;1.00;;
68821;SDS011;55834;50.870;4.606;2023-07-28T08:46:05;1.95;;;0.70;;
68821;SDS011;55834;50.870;4.606;2023-07-28T08:48:31;0.82;;;0.73;;
68821;SDS011;55834;50.870;4.606;2023-07-28T08:50:56;0.60;;;0.60;;
68821;SDS011;55834;50.870;4.606;2023-07-28T08:53:22;1.80;;;0.40;;
68821;SDS011;55834;50.870;4.606;2023-07-28T08:55:47;0.60;;;0.60;;
68821;SDS011;55834;50.870;4.606;2023-07-28T08:58:16;1.42;;;0.68;;
68821;SDS011;55834;50.870;4.606;2023-07-28T09:00:44;1.38;;;0.60;;
68821;SDS011;55834;50.870;4.606;2023-07-28T09:03:10;0.68;;;0.50;;
68821;SDS011;55834;50.870;4.606;2023-07-28T09:05:36;1.63;;;0.75;;
68821;SDS011;55834;50.870;4.606;2023-07-28T09:08:01;0.75;;;0.55;;
68821;SDS011;55834;50.870;4.606;2023-07-28T09:10:39;3.10;;;0.45;;
68821;SDS011;55834;50.870;4.606;2023-07-28T09:13:08;2.30;;;1.15;;
68821;SDS011;55834;50.870;4.606;2023-07-28T09:15:36;2.88;;;0.57;;
68821;SDS011;55834;50.870;4.606;2023-07-28T09:18:01;0.85;;;0.85;;
68821;SDS011;55834;50.870;4.606;2023-07-28T09:20:32;0.75;;;0.60;;
68821;SDS011;55834;50.870;4.606;2023-07-28T09:25:25;1.23;;;0.77;;
68821;SDS011;55834;50.870;4.606;2023-07-28T09:27:54;0.70;;;0.38;;
68821;SDS011;55834;50.870;4.606;2023-07-28T09:30:21;0.93;;;0.65;;
68821;SDS011;55834;50.870;4.606;2023-07-28T09:32:47;0.25;;;0.25;;
68821;SDS011;55834;50.870;4.606;2023-07-28T09:35:14;0.80;;;0.25;;
68821;SDS011;55834;50.870;4.606;2023-07-28T09:37:41;0.20;;;0.20;;
68821;SDS011;55834;50.870;4.606;2023-07-28T09:40:09;1.10;;;0.30;;
68821;SDS011;55834;50.870;4.606;2023-07-28T09:42:37;0.40;;;0.32;;
68821;SDS011;55834;50.870;4.606;2023-07-28T09:45:05;0.20;;;0.20;;
68821;SDS011;55834;50.870;4.606;2023-07-28T09:47:33;0.30;;;0.30;;
68821;SDS011;55834;50.870;4.606;2023-07-28T09:50:01;0.15;;;0.15;;
68821;SDS011;55834;50.870;4.606;2023-07-28T09:52:28;0.45;;;0.40;;
68821;SDS011;55834;50.870;4.606;2023-07-28T09:54:59;0.88;;;0.30;;
68821;SDS011;55834;50.870;4.606;2023-07-28T09:57:25;0.70;;;0.50;;
68821;SDS011;55834;50.870;4.606;2023-07-28T09:59:53;0.63;;;0.45;;
68821;SDS011;55834;50.870;4.606;2023-07-28T10:02:20;2.20;;;0.60;;
68821;SDS011;55834;50.870;4.606;2023-07-28T10:04:46;0.43;;;0.35;;
68821;SDS011;55834;50.870;4.606;2023-07-28T10:07:12;0.63;;;0.63;;
68821;SDS011;55834;50.870;4.606;2023-07-28T10:09:41;1.35;;;0.50;;
68821;SDS011;55834;50.870;4.606;2023-07-28T10:12:06;0.65;;;0.45;;
68821;SDS011;55834;50.870;4.606;2023-07-28T10:14:43;0.43;;;0.30;;
68821;SDS011;55834;50.870;4.606;2023-07-28T10:17:08;0.87;;;0.70;;
68821;SDS011;55834;50.870;4.606;2023-07-28T10:19:41;0.47;;;0.25;;
68821;SDS011;55834;50.870;4.606;2023-07-28T10:22:08;0.35;;;0.35;;
68821;SDS011;55834;50.870;4.606;2023-07-28T10:24:54;1.10;;;0.82;;
68821;SDS011;55834;50.870;4.606;2023-07-28T10:29:59;0.82;;;0.60;;
68821;SDS011;55834;50.870;4.606;2023-07-28T10:32:28;1.00;;;0.90;;
68821;SDS011;55834;50.870;4.606;2023-07-28T10:35:03;0.65;;;0.65;;
68821;SDS011;55834;50.870;4.606;2023-07-28T10:37:32;0.50;;;0.50;;
68821;SDS011;55834;50.870;4.606;2023-07-28T10:43:00;1.13;;;0.55;;
68821;SDS011;55834;50.870;4.606;2023-07-28T10:45:28;0.60;;;0.45;;
68821;SDS011;55834;50.870;4.606;2023-07-28T10:47:56;1.67;;;0.57;;
68821;SDS011;55834;50.870;4.606;2023-07-28T10:50:25;0.70;;;0.60;;
68821;SDS011;55834;50.870;4.606;2023-07-28T10:52:52;2.25;;;0.90;;
68821;SDS011;55834;50.870;4.606;2023-07-28T10:55:18;0.75;;;0.75;;
68821;SDS011;55834;50.870;4.606;2023-07-28T10:57:46;2.15;;;0.60;;
68821;SDS011;55834;50.870;4.606;2023-07-28T11:00:14;1.23;;;1.00;;
68821;SDS011;55834;50.870;4.606;2023-07-28T11:02:41;0.75;;;0.75;;
68821;SDS011;55834;50.870;4.606;2023-07-28T11:05:11;1.60;;;1.13;;
68821;SDS011;55834;50.870;4.606;2023-07-28T11:10:48;0.80;;;0.80;;
68821;SDS011;55834;50.870;4.606;2023-07-28T11:13:13;2.08;;;1.23;;
68821;SDS011;55834;50.870;4.606;2023-07-28T11:15:39;2.40;;;1.40;;
68821;SDS011;55834;50.870;4.606;2023-07-28T11:18:05;1.70;;;1.60;;
68821;SDS011;55834;50.870;4.606;2023-07-28T11:20:31;2.03;;;1.73;;
68821;SDS011;55834;50.870;4.606;2023-07-28T11:23:02;3.00;;;2.70;;
68821;SDS011;55834;50.870;4.606;2023-07-28T11:25:29;2.55;;;2.35;;
68821;SDS011;55834;50.870;4.606;2023-07-28T11:27:56;3.28;;;2.60;;
68821;SDS011;55834;50.870;4.606;2023-07-28T11:30:22;4.18;;;2.75;;
68821;SDS011;55834;50.870;4.606;2023-07-28T11:32:51;4.47;;;3.03;;
68821;SDS011;55834;50.870;4.606;2023-07-28T11:35:19;2.92;;;2.67;;
68821;SDS011;55834;50.870;4.606;2023-07-28T11:37:46;2.80;;;2.60;;
68821;SDS011;55834;50.870;4.606;2023-07-28T11:40:14;1.65;;;1.40;;
68821;SDS011;55834;50.870;4.606;2023-07-28T11:42:41;2.25;;;1.85;;
68821;SDS011;55834;50.870;4.606;2023-07-28T11:45:10;2.50;;;2.30;;
68821;SDS011;55834;50.870;4.606;2023-07-28T11:47:37;1.60;;;1.50;;
68821;SDS011;55834;50.870;4.606;2023-07-28T11:50:02;1.63;;;1.30;;
68821;SDS011;55834;50.870;4.606;2023-07-28T11:54:58;1.40;;;1.30;;
68821;SDS011;55834;50.870;4.606;2023-07-28T11:57:28;1.30;;;1.20;;
68821;SDS011;55834;50.870;4.606;2023-07-28T11:59:58;1.42;;;1.10;;
68821;SDS011;55834;50.870;4.606;2023-07-28T12:02:29;1.00;;;0.90;;
68821;SDS011;55834;50.870;4.606;2023-07-28T12:04:56;1.60;;;1.50;;
68821;SDS011;55834;50.870;4.606;2023-07-28T12:07:30;1.80;;;1.70;;
68821;SDS011;55834;50.870;4.606;2023-07-28T12:09:57;2.13;;;1.35;;
68821;SDS011;55834;50.870;4.606;2023-07-28T12:12:29;1.30;;;1.20;;
68821;SDS011;55834;50.870;4.606;2023-07-28T12:14:56;1.98;;;1.55;;
68821;SDS011;55834;50.870;4.606;2023-07-28T12:17:29;1.83;;;1.40;;
68821;SDS011;55834;50.870;4.606;2023-07-28T12:19:58;2.10;;;1.50;;
68821;SDS011;55834;50.870;4.606;2023-07-28T12:22:27;2.05;;;1.80;;
68821;SDS011;55834;50.870;4.606;2023-07-28T12:24:54;4.22;;;1.90;;
68821;SDS011;55834;50.870;4.606;2023-07-28T12:27:20;2.38;;;1.90;;
68821;SDS011;55834;50.870;4.606;2023-07-28T12:29:48;2.42;;;1.60;;
68821;SDS011;55834;50.870;4.606;2023-07-28T12:32:14;2.65;;;1.30;;
68821;SDS011;55834;50.870;4.606;2023-07-28T12:34:40;3.07;;;1.93;;
68821;SDS011;55834;50.870;4.606;2023-07-28T12:37:05;1.50;;;1.40;;
68821;SDS011;55834;50.870;4.606;2023-07-28T12:39:31;1.88;;;1.60;;
68821;SDS011;55834;50.870;4.606;2023-07-28T12:41:57;1.23;;;0.90;;
68821;SDS011;55834;50.870;4.606;2023-07-28T12:44:22;1.50;;;1.40;;
68821;SDS011;55834;50.870;4.606;2023-07-28T12:46:47;1.40;;;1.27;;
68821;SDS011;55834;50.870;4.606;2023-07-28T12:49:13;1.08;;;0.98;;
68821;SDS011;55834;50.870;4.606;2023-07-28T12:51:39;1.50;;;1.33;;
68821;SDS011;55834;50.870;4.606;2023-07-28T12:54:05;1.83;;;1.30;;
68821;SDS011;55834;50.870;4.606;2023-07-28T12:56:30;2.83;;;0.90;;
68821;SDS011;55834;50.870;4.606;2023-07-28T12:58:56;2.33;;;1.58;;
68821;SDS011;55834;50.870;4.606;2023-07-28T13:01:21;2.08;;;1.83;;
68821;SDS011;55834;50.870;4.606;2023-07-28T13:03:47;1.50;;;1.40;;
68821;SDS011;55834;50.870;4.606;2023-07-28T13:06:12;1.10;;;0.97;;
68821;SDS011;55834;50.870;4.606;2023-07-28T13:08:37;1.23;;;1.13;;
68821;SDS011;55834;50.870;4.606;2023-07-28T13:11:03;2.15;;;1.38;;
68821;SDS011;55834;50.870;4.606;2023-07-28T13:13:29;1.38;;;1.13;;
68821;SDS011;55834;50.870;4.606;2023-07-28T13:15:55;0.77;;;0.77;;
68821;SDS011;55834;50.870;4.606;2023-07-28T13:18:21;1.13;;;0.75;;
68821;SDS011;55834;50.870;4.606;2023-07-28T13:20:46;0.60;;;0.60;;
68821;SDS011;55834;50.870;4.606;2023-07-28T13:23:12;1.45;;;1.00;;
68821;SDS011;55834;50.870;4.606;2023-07-28T13:25:37;0.80;;;0.80;;
68821;SDS011;55834;50.870;4.606;2023-07-28T13:28:03;1.17;;;1.08;;
68821;SDS011;55834;50.870;4.606;2023-07-28T13:30:29;1.23;;;1.10;;
68821;SDS011;55834;50.870;4.606;2023-07-28T13:32:55;1.20;;;1.10;;
68821;SDS011;55834;50.870;4.606;2023-07-28T13:35:20;2.88;;;1.17;;
68821;SDS011;55834;50.870;4.606;2023-07-28T13:37:45;2.72;;;0.90;;
68821;SDS011;55834;50.870;4.606;2023-07-28T13:40:11;1.47;;;1.37;;
68821;SDS011;55834;50.870;4.606;2023-07-28T13:42:36;4.03;;;0.97;;
68821;SDS011;55834;50.870;4.606;2023-07-28T13:45:02;0.90;;;0.90;;
68821;SDS011;55834;50.870;4.606;2023-07-28T13:47:27;1.50;;;1.10;;
68821;SDS011;55834;50.870;4.606;2023-07-28T13:49:52;2.50;;;1.00;;
68821;SDS011;55834;50.870;4.606;2023-07-28T13:52:18;2.70;;;0.70;;
68821;SDS011;55834;50.870;4.606;2023-07-28T13:54:46;0.50;;;0.50;;
68821;SDS011;55834;50.870;4.606;2023-07-28T13:57:13;0.73;;;0.73;;
68821;SDS011;55834;50.870;4.606;2023-07-28T13:59:39;1.35;;;0.90;;
68821;SDS011;55834;50.870;4.606;2023-07-28T14:02:05;1.40;;;1.10;;
68821;SDS011;55834;50.870;4.606;2023-07-28T14:04:30;1.60;;;0.73;;
68821;SDS011;55834;50.870;4.606;2023-07-28T14:06:56;1.20;;;0.80;;
68821;SDS011;55834;50.870;4.606;2023-07-28T14:09:21;0.70;;;0.68;;
68821;SDS011;55834;50.870;4.606;2023-07-28T14:11:46;3.67;;;0.80;;
68821;SDS011;55834;50.870;4.606;2023-07-28T14:14:12;1.60;;;0.60;;
68821;SDS011;55834;50.870;4.606;2023-07-28T14:16:37;2.60;;;0.97;;
68821;SDS011;55834;50.870;4.606;2023-07-28T14:19:03;0.80;;;0.80;;
68821;SDS011;55834;50.870;4.606;2023-07-28T14:21:28;0.70;;;0.70;;
68821;SDS011;55834;50.870;4.606;2023-07-28T14:23:54;1.67;;;0.83;;
68821;SDS011;55834;50.870;4.606;2023-07-28T14:26:19;0.75;;;0.63;;
68821;SDS011;55834;50.870;4.606;2023-07-28T14:28:44;0.50;;;0.50;;
68821;SDS011;55834;50.870;4.606;2023-07-28T14:31:10;0.80;;;0.80;;
68821;SDS011;55834;50.870;4.606;2023-07-28T14:33:35;1.75;;;0.70;;
68821;SDS011;55834;50.870;4.606;2023-07-28T14:36:01;1.00;;;0.82;;
68821;SDS011;55834;50.870;4.606;2023-07-28T14:38:26;0.70;;;0.68;;
68821;SDS011;55834;50.870;4.606;2023-07-28T14:40:51;0.80;;;0.80;;
68821;SDS011;55834;50.870;4.606;2023-07-28T14:43:17;0.68;;;0.65;;
68821;SDS011;55834;50.870;4.606;2023-07-28T14:45:43;1.58;;;0.70;;
68821;SDS011;55834;50.870;4.606;2023-07-28T14:48:09;1.13;;;0.80;;
68821;SDS011;55834;50.870;4.606;2023-07-28T14:50:34;0.68;;;0.68;;
68821;SDS011;55834;50.870;4.606;2023-07-28T14:53:00;1.52;;;0.80;;
68821;SDS011;55834;50.870;4.606;2023-07-28T14:55:25;1.10;;;0.95;;
68821;SDS011;55834;50.870;4.606;2023-07-28T14:57:51;1.48;;;0.70;;
68821;SDS011;55834;50.870;4.606;2023-07-28T15:00:17;0.70;;;0.70;;
68821;SDS011;55834;50.870;4.606;2023-07-28T15:02:43;0.95;;;0.82;;